Time;durP1;ratioP1;P1;durP2;ratioP2;P2;SDS_P1;SDS_P2;PMS_P1;PMS_P2;Temp;Humidity;BMP_temperature;BMP_pressure;BME280_temperature;BME280_humidity;BME280_pressure;Samples;Min_cycle;Max_cycle;Signal;HPM_P1;HPM_P2
2022/10/20 00:02:02;;;;;;;51.83;21.12;;;;;;;3.53;100.00;99808.85;2177487;81;20958;-94
2022/10/20 00:05:03;;;;;;;58.70;23.00;;;;;;;3.44;100.00;99804.32;2206182;81;21227;-94
2022/10/20 00:08:03;;;;;;;63.45;27.45;;;;;;;3.42;100.00;99809.61;2206335;81;21010;-93
2022/10/20 00:11:04;;;;;;;30.25;16.57;;;;;;;3.39;100.00;99817.60;2206084;81;20967;-92
2022/10/20 00:14:05;;;;;;;31.85;15.50;;;;;;;3.38;100.00;99821.13;2206309;81;21025;-93
2022/10/20 00:17:06;;;;;;;18.35;11.38;;;;;;;3.40;100.00;99824.44;2206094;81;21007;-94
2022/10/20 00:20:06;;;;;;;33.35;15.45;;;;;;;3.44;100.00;99819.86;2220348;80;21415;-93
2022/10/20 00:23:07;;;;;;;20.95;11.53;;;;;;;3.45;100.00;99826.69;2238937;79;20996;-93
2022/10/20 00:26:08;;;;;;;29.60;14.30;;;;;;;3.45;100.00;99819.39;2222710;79;21037;-93
2022/10/20 00:29:08;;;;;;;29.45;14.85;;;;;;;3.44;100.00;99822.45;2209320;81;21020;-93
2022/10/20 00:32:09;;;;;;;23.83;13.93;;;;;;;3.43;100.00;99824.21;2207499;80;20974;-95
2022/10/20 00:35:10;;;;;;;32.53;14.78;;;;;;;3.40;100.00;99814.08;2177550;81;21477;-94
2022/10/20 00:38:11;;;;;;;25.60;14.55;;;;;;;3.36;100.00;99810.03;2165236;82;20969;-94
2022/10/20 00:41:12;;;;;;;24.15;13.30;;;;;;;3.33;100.00;99810.72;2164873;82;21031;-90
2022/10/20 00:44:12;;;;;;;21.37;12.28;;;;;;;3.30;100.00;99811.77;2210051;78;21409;-93
2022/10/20 00:47:13;;;;;;;208.43;44.83;;;;;;;3.27;100.00;99809.84;2210990;81;20961;-94
2022/10/20 00:50:14;;;;;;;135.57;35.90;;;;;;;3.22;100.00;99814.53;2210023;81;20918;-93
2022/10/20 00:53:15;;;;;;;61.63;19.85;;;;;;;3.10;100.00;99810.53;2183905;80;20981;-93
2022/10/20 00:56:15;;;;;;;57.13;18.80;;;;;;;3.00;100.00;99806.92;2143666;82;21013;-94
2022/10/20 00:59:16;;;;;;;74.60;22.52;;;;;;;2.95;100.00;99806.89;2167854;82;20958;-95
2022/10/20 01:02:17;;;;;;;56.50;18.02;;;;;;;2.84;100.00;99812.34;2169067;80;20973;-94
2022/10/20 01:05:17;;;;;;;37.90;13.38;;;;;;;2.76;100.00;99818.49;2167565;82;21021;-95
2022/10/20 01:08:18;;;;;;;57.08;18.15;;;;;;;2.69;100.00;99817.23;2166969;82;20954;-95
2022/10/20 01:11:19;;;;;;;45.03;15.88;;;;;;;2.67;100.00;99813.11;2166919;82;20942;-93
2022/10/20 01:14:19;;;;;;;66.67;19.95;;;;;;;2.64;100.00;99817.17;2203042;81;20954;-93
2022/10/20 01:17:22;;;;;;;49.95;17.55;;;;;;;2.62;100.00;99815.16;2204800;81;20927;-93
2022/10/20 01:20:23;;;;;;;74.30;23.83;;;;;;;2.60;100.00;99813.97;2203278;81;20958;-94
2022/10/20 01:23:23;;;;;;;94.30;27.82;;;;;;;2.59;100.00;99816.20;2202551;80;21052;-93
2022/10/20 01:26:24;;;;;;;87.05;26.73;;;;;;;2.58;100.00;99811.96;2210261;80;21553;-94
2022/10/20 01:29:25;;;;;;;85.75;24.70;;;;;;;2.54;100.00;99810.02;2214192;80;21013;-94
2022/10/20 01:32:25;;;;;;;124.78;36.65;;;;;;;2.54;100.00;99811.31;2213965;78;20973;-94
2022/10/20 01:35:26;;;;;;;180.95;47.90;;;;;;;2.53;100.00;99805.78;2214200;80;20962;-93
2022/10/20 01:38:27;;;;;;;143.65;44.33;;;;;;;2.51;100.00;99807.66;2214180;80;20978;-94
2022/10/20 01:41:27;;;;;;;189.13;56.40;;;;;;;2.50;100.00;99799.54;2208400;78;21002;-94
2022/10/20 01:44:28;;;;;;;147.95;47.27;;;;;;;2.48;100.00;99797.53;2204458;80;20999;-94
2022/10/20 01:47:29;;;;;;;77.75;26.62;;;;;;;2.41;100.00;99798.85;2203901;80;21076;-92
2022/10/20 01:50:29;;;;;;;58.75;22.27;;;;;;;2.36;100.00;99793.14;2208861;78;20993;-94
2022/10/20 01:53:30;;;;;;;49.93;18.07;;;;;;;2.33;100.00;99794.65;2217052;80;20962;-93
2022/10/20 01:56:31;;;;;;;29.27;13.25;;;;;;;2.36;100.00;99802.66;2216970;80;20989;-93
2022/10/20 01:59:31;;;;;;;32.05;14.35;;;;;;;2.36;100.00;99802.66;2213983;78;20997;-93
2022/10/20 02:02:32;;;;;;;25.20;12.23;;;;;;;2.35;100.00;99801.83;2212324;80;20985;-95
2022/10/20 02:05:33;;;;;;;25.72;13.32;;;;;;;2.33;100.00;99801.11;2212474;80;21001;-93
2022/10/20 02:08:34;;;;;;;23.45;11.03;;;;;;;2.32;100.00;99805.92;2212330;80;20966;-94
2022/10/20 02:11:34;;;;;;;21.77;11.65;;;;;;;2.33;100.00;99801.58;2212418;78;21008;-93
2022/10/20 02:14:35;;;;;;;22.27;13.08;;;;;;;2.26;100.00;99792.92;2212015;80;21005;-93
2022/10/20 02:17:36;;;;;;;27.82;13.88;;;;;;;2.24;100.00;99799.95;2211969;80;20978;-94
2022/10/20 02:20:36;;;;;;;30.00;14.05;;;;;;;2.19;100.00;99799.41;2212355;79;20978;-93
2022/10/20 02:23:37;;;;;;;26.23;13.28;;;;;;;2.09;100.00;99799.66;2187116;80;21102;-93
2022/10/20 02:26:38;;;;;;;30.88;14.25;;;;;;;2.09;100.00;99799.66;2206066;78;21018;-92
2022/10/20 02:29:39;;;;;;;26.37;13.22;;;;;;;2.06;100.00;99797.73;2201810;80;20954;-91
2022/10/20 02:32:39;;;;;;;27.27;13.32;;;;;;;2.04;100.00;99793.97;2202916;81;21466;-93
2022/10/20 02:35:40;;;;;;;26.90;13.38;;;;;;;2.00;100.00;99792.03;2202887;81;20997;-92
2022/10/20 02:38:41;;;;;;;24.23;12.13;;;;;;;1.96;100.00;99799.62;2202651;81;20986;-92
2022/10/20 02:41:41;;;;;;;33.58;13.62;;;;;;;1.95;100.00;99800.55;2202465;80;21073;-93
2022/10/20 02:44:42;;;;;;;22.90;11.15;;;;;;;1.93;100.00;99803.70;2204721;81;20982;-90
2022/10/20 02:47:43;;;;;;;22.80;11.40;;;;;;;1.90;100.00;99804.34;2207167;80;20970;-90
2022/10/20 02:50:44;;;;;;;23.83;12.20;;;;;;;1.82;100.00;99804.00;2206866;81;20962;-90
2022/10/20 02:53:44;;;;;;;30.75;14.70;;;;;;;1.79;100.00;99802.92;2205349;80;20963;-90
2022/10/20 02:56:45;;;;;;;21.25;10.68;;;;;;;1.74;100.00;99798.49;2205170;81;21109;-93
2022/10/20 02:59:46;;;;;;;17.62;9.75;;;;;;;1.70;100.00;99805.16;2203285;81;20967;-91
2022/10/20 03:02:47;;;;;;;23.73;11.68;;;;;;;1.68;100.00;99815.22;2205873;80;20994;-93
2022/10/20 03:05:47;;;;;;;16.27;10.48;;;;;;;1.67;100.00;99814.86;2203796;80;21012;-94
2022/10/20 03:08:48;;;;;;;19.85;12.25;;;;;;;1.64;100.00;99811.98;2202562;81;20927;-94
2022/10/20 03:11:49;;;;;;;37.13;15.72;;;;;;;1.57;100.00;99817.19;2202602;81;20989;-94
2022/10/20 03:14:50;;;;;;;25.90;14.28;;;;;;;1.55;100.00;99831.09;2204526;81;21481;-93
2022/10/20 03:17:50;;;;;;;28.00;14.20;;;;;;;1.54;100.00;99826.86;2174425;80;20942;-93
2022/10/20 03:20:51;;;;;;;21.12;12.03;;;;;;;1.50;100.00;99837.84;2188683;81;20993;-93
2022/10/20 03:23:52;;;;;;;14.73;10.60;;;;;;;1.48;100.00;99838.41;2180497;81;21013;-93
2022/10/20 03:26:52;;;;;;;13.25;9.20;;;;;;;1.47;100.00;99843.20;2181164;81;21038;-94
2022/10/20 03:29:53;;;;;;;11.55;8.60;;;;;;;1.40;100.00;99842.75;2209064;81;20965;-93
2022/10/20 03:32:54;;;;;;;13.58;8.55;;;;;;;1.35;100.00;99843.47;2209205;81;21497;-94
2022/10/20 03:35:55;;;;;;;13.93;8.55;;;;;;;1.33;100.00;99847.91;2209317;80;22110;-94
2022/10/20 03:38:55;;;;;;;14.93;9.23;;;;;;;1.29;100.00;99850.32;2205169;81;21022;-92
2022/10/20 03:41:56;;;;;;;12.60;8.15;;;;;;;1.24;100.00;99861.37;2205413;81;20990;-94
2022/10/20 03:44:57;;;;;;;11.08;8.08;;;;;;;1.23;100.00;99858.42;2205222;81;21080;-93
2022/10/20 03:47:58;;;;;;;12.60;8.55;;;;;;;1.16;100.00;99861.00;2204924;81;21481;-93
2022/10/20 03:50:59;;;;;;;14.53;8.30;;;;;;;1.07;100.00;99858.50;2207573;80;20994;-94
2022/10/20 03:54:00;;;;;;;12.53;9.68;;;;;;;1.05;100.00;99856.48;2209435;81;21492;-93
2022/10/20 03:57:03;;;;;;;17.32;10.48;;;;;;;0.96;100.00;99845.42;2184471;81;20930;-92
2022/10/20 04:00:07;;;;;;;13.65;11.38;;;;;;;0.96;100.00;99854.91;2210133;81;20965;-92
2022/10/20 04:03:10;;;;;;;23.83;15.10;;;;;;;0.91;100.00;99855.17;2146889;81;21101;-93
2022/10/20 04:06:13;;;;;;;15.90;11.33;;;;;;;0.85;100.00;99855.55;2133976;82;21064;-94
2022/10/20 04:09:14;;;;;;;13.45;10.03;;;;;;;0.85;100.00;99861.53;2169167;82;21021;-92
2022/10/20 04:12:15;;;;;;;14.00;10.63;;;;;;;0.83;100.00;99865.13;2146220;82;21017;-91
2022/10/20 04:15:17;;;;;;;15.83;10.58;;;;;;;0.83;100.00;99862.09;2145064;82;21098;-92
2022/10/20 04:18:21;;;;;;;14.95;11.18;;;;;;;0.81;100.00;99860.04;2186138;80;20968;-92
2022/10/20 04:21:24;;;;;;;16.20;10.35;;;;;;;0.81;100.00;99863.91;2166724;82;21036;-93
2022/10/20 04:24:24;;;;;;;13.38;9.30;;;;;;;0.80;100.00;99862.71;2145602;82;20971;-92
2022/10/20 04:27:25;;;;;;;8.98;8.08;;;;;;;0.76;100.00;99852.22;2213500;80;21571;-92
2022/10/20 04:30:26;;;;;;;10.23;8.50;;;;;;;0.79;100.00;99851.57;2258883;79;20966;-93
2022/10/20 04:33:27;;;;;;;11.83;8.80;;;;;;;0.72;100.00;99850.27;2215782;80;21053;-93
2022/10/20 04:36:27;;;;;;;10.40;7.78;;;;;;;0.74;100.00;99854.07;2216226;80;20962;-89
2022/10/20 04:39:31;;;;;;;10.03;8.50;;;;;;;0.73;100.00;99851.09;2180165;80;20950;-92
2022/10/20 04:42:31;;;;;;;11.48;8.30;;;;;;;0.74;100.00;99856.64;2216213;80;20974;-92
2022/10/20 04:45:32;;;;;;;12.20;8.45;;;;;;;0.72;100.00;99854.13;2216272;80;21002;-88
2022/10/20 04:48:32;;;;;;;15.50;10.18;;;;;;;0.71;100.00;99852.94;2213300;80;21593;-90
2022/10/20 04:51:33;;;;;;;11.83;9.08;;;;;;;0.70;100.00;99850.82;2196338;81;20998;-89
2022/10/20 04:54:34;;;;;;;12.07;9.00;;;;;;;0.72;100.00;99837.83;2196147;81;20943;-85
2022/10/20 04:57:35;;;;;;;11.70;9.05;;;;;;;0.75;100.00;99853.14;2223438;80;21008;-86
2022/10/20 05:00:35;;;;;;;14.70;9.60;;;;;;;0.77;100.00;99843.10;2223528;78;20996;-85
2022/10/20 05:03:36;;;;;;;12.53;9.58;;;;;;;0.81;100.00;99841.16;2222143;78;21512;-85
2022/10/20 05:06:37;;;;;;;14.93;10.28;;;;;;;0.87;100.00;99839.52;2222261;80;21068;-86
2022/10/20 05:09:38;;;;;;;21.37;11.00;;;;;;;0.83;100.00;99841.47;2221631;80;21029;-87
2022/10/20 05:12:38;;;;;;;13.48;10.72;;;;;;;0.76;100.00;99843.20;2253197;78;20914;-86
2022/10/20 05:15:39;;;;;;;16.40;11.65;;;;;;;0.75;100.00;99843.66;2215593;80;21486;-86
2022/10/20 05:18:40;;;;;;;17.17;12.13;;;;;;;0.69;100.00;99847.87;2215861;80;21449;-87
2022/10/20 05:21:43;;;;;;;15.98;10.65;;;;;;;0.71;100.00;99846.49;2205535;80;21512;-86
2022/10/20 05:24:44;;;;;;;16.55;10.65;;;;;;;0.76;100.00;99841.45;2196295;81;20990;-87
2022/10/20 05:27:45;;;;;;;18.32;11.48;;;;;;;0.82;100.00;99841.53;2208833;80;21035;-86
2022/10/20 05:30:46;;;;;;;17.73;10.58;;;;;;;0.85;100.00;99849.94;2204367;80;20979;-87
2022/10/20 05:33:46;;;;;;;13.50;9.53;;;;;;;0.94;100.00;99849.02;2216983;79;20962;-87
2022/10/20 05:36:47;;;;;;;20.85;10.75;;;;;;;1.03;100.00;99846.72;2206235;80;20994;-87
2022/10/20 05:39:48;;;;;;;14.33;9.88;;;;;;;1.17;100.00;99846.34;2214957;80;20951;-87
2022/10/20 05:42:49;;;;;;;12.30;9.63;;;;;;;1.28;100.00;99849.95;2212543;80;21008;-86
2022/10/20 05:45:49;;;;;;;32.03;12.73;;;;;;;1.41;100.00;99846.16;2212431;80;21033;-86
2022/10/20 05:48:50;;;;;;;32.95;12.35;;;;;;;1.50;100.00;99842.18;2202351;81;21490;-85
2022/10/20 05:51:51;;;;;;;26.30;11.85;;;;;;;1.57;100.00;99843.00;2202357;80;20990;-86
2022/10/20 05:54:52;;;;;;;35.30;12.93;;;;;;;1.65;100.00;99843.36;2203252;81;21101;-85
2022/10/20 05:57:53;;;;;;;26.97;12.70;;;;;;;1.77;100.00;99845.62;2202602;81;21005;-85
2022/10/20 06:00:53;;;;;;;24.57;11.08;;;;;;;1.87;100.00;99836.84;2202746;81;20982;-86
2022/10/20 06:03:54;;;;;;;22.95;9.98;;;;;;;1.92;100.00;99838.22;2202702;80;21042;-86
2022/10/20 06:06:55;;;;;;;17.70;10.63;;;;;;;2.01;100.00;99848.40;2216656;80;20978;-86
2022/10/20 06:09:56;;;;;;;16.90;10.15;;;;;;;2.12;100.00;99846.45;2216921;80;21009;-86
2022/10/20 06:12:56;;;;;;;18.37;10.38;;;;;;;2.25;100.00;99839.08;2205888;80;20982;-87
2022/10/20 06:15:57;;;;;;;19.23;9.60;;;;;;;2.42;100.00;99848.33;2202482;81;20973;-86
2022/10/20 06:18:58;;;;;;;19.37;11.08;;;;;;;2.52;100.00;99853.26;2204636;80;21003;-86
2022/10/20 06:21:59;;;;;;;15.05;9.40;;;;;;;2.63;100.00;99852.55;2216245;79;21018;-86
2022/10/20 06:24:59;;;;;;;13.93;9.55;;;;;;;2.74;100.00;99851.83;2203328;79;21002;-85
2022/10/20 06:28:03;;;;;;;19.48;10.68;;;;;;;2.77;100.00;99860.70;2210964;80;21556;-86
2022/10/20 06:31:03;;;;;;;18.92;12.58;;;;;;;2.82;100.00;99858.15;2196328;81;20982;-86
2022/10/20 06:34:06;;;;;;;20.43;12.88;;;;;;;2.95;100.00;99863.81;2186905;81;21033;-86
2022/10/20 06:37:06;;;;;;;15.60;12.35;;;;;;;3.06;100.00;99870.38;2155905;81;21544;-87
2022/10/20 06:40:07;;;;;;;20.30;14.10;;;;;;;3.21;100.00;99875.00;2162835;82;21025;-86
2022/10/20 06:43:08;;;;;;;21.75;14.78;;;;;;;3.35;100.00;99879.58;2171516;82;20994;-87
2022/10/20 06:46:08;;;;;;;17.60;14.23;;;;;;;3.51;100.00;99880.65;2135005;82;22140;-86
2022/10/20 06:49:10;;;;;;;26.82;17.30;;;;;;;3.65;100.00;99883.56;2148695;83;21053;-86
2022/10/20 06:52:13;;;;;;;24.35;17.05;;;;;;;3.79;100.00;99887.80;2143328;81;21073;-87
2022/10/20 06:55:13;;;;;;;24.57;16.50;;;;;;;3.94;100.00;99894.49;2112897;83;21025;-85
2022/10/20 06:58:14;;;;;;;29.25;16.75;;;;;;;4.10;100.00;99886.44;2112950;83;20975;-86
2022/10/20 07:01:18;;;;;;;27.00;14.10;;;;;;;4.39;100.00;99902.48;2113116;83;21037;-86
2022/10/20 07:04:18;;;;;;;25.32;15.63;;;;;;;4.39;100.00;99902.48;2145588;81;21022;-86
2022/10/20 07:07:19;;;;;;;41.08;16.32;;;;;;;4.50;100.00;99899.95;2151621;82;21048;-87
2022/10/20 07:10:20;;;;;;;25.68;15.83;;;;;;;4.58;100.00;99899.40;2150396;81;21030;-86
2022/10/20 07:13:21;;;;;;;34.65;17.02;;;;;;;4.70;100.00;99902.37;2144598;81;21514;-87
2022/10/20 07:16:22;;;;;;;27.85;18.30;;;;;;;4.81;100.00;99903.70;2149251;82;21014;-89
2022/10/20 07:19:22;;;;;;;28.35;16.80;;;;;;;4.93;100.00;99904.08;2146166;81;20975;-90
2022/10/20 07:22:24;;;;;;;25.92;13.20;;;;;;;5.07;100.00;99906.48;2152958;83;21181;-87
2022/10/20 07:25:25;;;;;;;20.15;13.58;;;;;;;5.18;100.00;99910.86;2151330;82;21571;-85
2022/10/20 07:28:26;;;;;;;23.77;13.30;;;;;;;5.26;100.00;99919.38;2150562;82;21034;-86
2022/10/20 07:31:26;;;;;;;25.60;13.45;;;;;;;5.37;100.00;99919.38;2122423;81;21010;-86
2022/10/20 07:34:27;;;;;;;20.88;16.17;;;;;;;5.48;100.00;99914.66;2115081;81;21061;-86
2022/10/20 07:37:28;;;;;;;20.95;16.97;;;;;;;5.60;100.00;99922.35;2116996;81;21002;-88
2022/10/20 07:40:28;;;;;;;24.67;18.87;;;;;;;5.70;100.00;99926.36;2115060;81;20994;-87
2022/10/20 07:43:29;;;;;;;24.60;15.95;;;;;;;5.82;100.00;99922.80;2145303;81;21030;-86
2022/10/20 07:46:30;;;;;;;21.37;15.88;;;;;;;5.90;100.00;99918.30;2172584;80;20978;-88
2022/10/20 07:49:30;;;;;;;28.47;22.87;;;;;;;5.96;100.00;99917.86;2172423;81;21014;-87
2022/10/20 07:52:31;;;;;;;24.65;21.10;;;;;;;6.03;100.00;99920.31;2171606;80;20994;-84
2022/10/20 07:55:33;;;;;;;23.42;18.23;;;;;;;6.15;100.00;99914.63;2174684;80;21513;-85
2022/10/20 07:58:34;;;;;;;37.00;28.47;;;;;;;6.25;100.00;99915.07;2137287;82;21080;-92
2022/10/20 08:01:34;;;;;;;24.02;18.87;;;;;;;6.46;100.00;99909.08;2137395;82;20998;-88
2022/10/20 08:04:35;;;;;;;21.77;18.77;;;;;;;6.46;100.00;99909.08;2142145;80;20969;-87
2022/10/20 08:07:36;;;;;;;23.95;19.52;;;;;;;6.52;100.00;99905.52;2173041;80;21513;-86
2022/10/20 08:10:37;;;;;;;20.92;18.30;;;;;;;6.56;100.00;99904.30;2174791;80;21046;-85
2022/10/20 08:13:39;;;;;;;25.50;18.85;;;;;;;6.66;100.00;99899.65;2174721;82;20950;-86
2022/10/20 08:16:40;;;;;;;21.27;18.02;;;;;;;6.75;100.00;99901.02;2174171;81;21005;-86
2022/10/20 08:19:41;;;;;;;18.77;15.40;;;;;;;6.78;100.00;99902.57;2174305;81;21048;-86
2022/10/20 08:22:42;;;;;;;18.55;16.37;;;;;;;6.85;100.00;99910.20;2173331;80;21009;-89
2022/10/20 08:25:42;;;;;;;17.00;14.28;;;;;;;6.96;100.00;99906.25;2172862;80;22086;-85
2022/10/20 08:28:43;;;;;;;19.30;10.93;;;;;;;7.07;100.00;99906.66;2170772;80;20994;-88
2022/10/20 08:31:47;;;;;;;14.47;11.53;;;;;;;7.16;100.00;99906.37;2171825;80;20999;-88
2022/10/20 08:34:48;;;;;;;13.10;9.68;;;;;;;7.25;100.00;99909.02;2171976;82;21514;-88
2022/10/20 08:37:48;;;;;;;14.93;9.40;;;;;;;7.28;100.00;99913.14;2174118;82;20947;-87
2022/10/20 08:40:49;;;;;;;12.28;7.97;;;;;;;7.27;100.00;99912.80;2174889;82;21053;-85
2022/10/20 08:43:50;;;;;;;13.00;9.75;;;;;;;7.36;100.00;99911.55;2175424;80;20939;-86
2022/10/20 08:46:51;;;;;;;13.85;10.25;;;;;;;7.47;100.00;99915.02;2174046;81;20971;-88
2022/10/20 08:49:51;;;;;;;19.07;10.38;;;;;;;7.63;100.00;99916.67;2172512;82;20990;-88
2022/10/20 08:52:53;;;;;;;23.25;12.10;;;;;;;7.74;100.00;99921.78;2172150;82;21002;-87
2022/10/20 08:55:53;;;;;;;18.50;10.82;;;;;;;7.85;100.00;99915.16;2171082;80;21033;-87
2022/10/20 08:58:54;;;;;;;13.25;6.58;;;;;;;8.06;100.00;99913.78;2172143;80;21478;-88
2022/10/20 09:01:55;;;;;;;16.73;7.80;;;;;;;8.20;100.00;99917.78;2172301;82;21037;-88
2022/10/20 09:04:56;;;;;;;8.40;4.95;;;;;;;8.29;100.00;99918.27;2172474;82;20975;-87
2022/10/20 09:07:56;;;;;;;4.50;4.08;;;;;;;8.36;100.00;99919.90;2174326;80;20947;-86
2022/10/20 09:10:58;;;;;;;8.65;4.85;;;;;;;8.40;100.00;99919.47;2173022;82;20986;-87
2022/10/20 09:13:59;;;;;;;5.83;5.00;;;;;;;8.43;100.00;99910.57;2172146;82;21084;-88
2022/10/20 09:17:00;;;;;;;5.50;4.65;;;;;;;8.49;100.00;99916.53;2171504;80;20958;-88
2022/10/20 09:20:00;;;;;;;4.15;3.72;;;;;;;8.60;100.00;99911.68;2172639;82;20959;-86
2022/10/20 09:23:01;;;;;;;4.75;4.00;;;;;;;8.70;100.00;99908.09;2175776;82;21014;-87
2022/10/20 09:26:02;;;;;;;6.55;4.30;;;;;;;8.81;100.00;99909.73;2173529;82;20978;-88
2022/10/20 09:29:03;;;;;;;3.05;2.47;;;;;;;8.94;100.00;99914.66;2216421;78;21592;-88
2022/10/20 09:32:04;;;;;;;3.62;2.87;;;;;;;9.07;100.00;99912.10;2223798;80;21097;-87
2022/10/20 09:35:05;;;;;;;4.25;3.45;;;;;;;9.17;100.00;99912.08;2223712;78;21028;-89
2022/10/20 09:38:06;;;;;;;4.53;3.33;;;;;;;9.40;100.00;99919.08;2223957;80;20954;-86
2022/10/20 09:41:07;;;;;;;6.65;5.58;;;;;;;9.51;100.00;99920.69;2224820;80;20974;-87
2022/10/20 09:44:07;;;;;;;4.58;3.75;;;;;;;9.51;100.00;99915.46;2227452;78;21466;-88
2022/10/20 09:47:08;;;;;;;4.45;3.52;;;;;;;9.52;100.00;99919.27;2206840;80;20947;-87
2022/10/20 09:50:09;;;;;;;3.85;3.55;;;;;;;9.62;100.00;99914.00;2216464;80;20990;-88
2022/10/20 09:53:10;;;;;;;4.90;1.30;;;;;;;9.68;100.00;99912.09;2216481;80;20970;-88
2022/10/20 09:56:10;;;;;;;1.47;1.37;;;;;;;9.53;100.00;99915.69;2209638;80;21431;-88
2022/10/20 09:59:11;;;;;;;2.37;1.20;;;;;;;9.39;100.00;99910.91;2201512;80;21038;-89
2022/10/20 10:02:11;;;;;;;1.07;0.70;;;;;;;9.35;100.00;99910.86;2179883;80;21029;-87
2022/10/20 10:05:12;;;;;;;2.85;1.20;;;;;;;9.35;100.00;99909.55;2200235;81;20977;-88
2022/10/20 10:08:13;;;;;;;1.20;1.10;;;;;;;9.33;100.00;99904.48;2213303;80;21053;-86
2022/10/20 10:11:14;;;;;;;1.57;1.45;;;;;;;9.38;100.00;99902.72;2193891;80;21724;-87
2022/10/20 10:14:15;;;;;;;2.55;1.40;;;;;;;9.42;100.00;99904.11;2175459;80;21022;-88
2022/10/20 10:17:16;;;;;;;2.05;1.90;;;;;;;9.49;100.00;99901.72;2226443;78;21568;-88
2022/10/20 10:20:16;;;;;;;3.02;1.82;;;;;;;9.65;100.00;99896.70;2224146;80;21476;-86
2022/10/20 10:23:17;;;;;;;3.65;2.35;;;;;;;9.74;100.00;99893.70;2224369;80;20996;-87
2022/10/20 10:26:18;;;;;;;3.95;2.40;;;;;;;9.67;100.00;99896.06;2224059;78;20969;-87
2022/10/20 10:29:19;;;;;;;5.55;3.10;;;;;;;9.54;100.00;99887.74;2180130;80;21013;-88
2022/10/20 10:32:19;;;;;;;3.33;2.27;;;;;;;9.44;100.00;99886.48;2173984;80;20981;-88
2022/10/20 10:35:20;;;;;;;5.20;2.42;;;;;;;9.33;100.00;99883.56;2172853;81;21001;-88
2022/10/20 10:38:21;;;;;;;5.05;2.30;;;;;;;9.25;100.00;99883.94;2171524;80;22292;-87
2022/10/20 10:41:22;;;;;;;4.75;2.50;;;;;;;9.21;100.00;99876.84;2170887;82;20994;-84
2022/10/20 10:44:23;;;;;;;3.42;2.52;;;;;;;9.31;100.00;99871.58;2173319;82;21042;-87
2022/10/20 10:47:23;;;;;;;3.95;2.87;;;;;;;9.49;100.00;99867.73;2173168;82;21053;-87
2022/10/20 10:50:24;;;;;;;3.98;2.10;;;;;;;9.64;100.00;99869.73;2173562;80;20950;-87
2022/10/20 10:53:25;;;;;;;3.65;2.47;;;;;;;9.83;100.00;99857.03;2173371;80;21488;-87
2022/10/20 10:56:26;;;;;;;4.08;2.52;;;;;;;10.05;100.00;99853.16;2147725;80;20966;-87
2022/10/20 10:59:26;;;;;;;3.58;2.52;;;;;;;10.18;100.00;99853.63;2171980;82;21010;-87
2022/10/20 11:02:27;;;;;;;4.42;3.12;;;;;;;10.01;100.00;99858.85;2172060;81;21482;-88
2022/10/20 11:05:28;;;;;;;3.40;2.50;;;;;;;9.82;100.00;99851.95;2171462;80;21282;-88
2022/10/20 11:08:29;;;;;;;4.62;3.15;;;;;;;9.72;100.00;99850.70;2173404;80;20959;-85
2022/10/20 11:11:29;;;;;;;7.58;4.28;;;;;;;9.63;100.00;99847.16;2151208;80;21133;-86
2022/10/20 11:14:30;;;;;;;5.83;3.62;;;;;;;9.46;100.00;99846.63;2169219;80;20959;-87
2022/10/20 11:17:31;;;;;;;5.22;4.00;;;;;;;9.46;100.00;99844.02;2172055;82;21017;-87
2022/10/20 11:20:32;;;;;;;10.15;5.58;;;;;;;9.38;100.00;99847.34;2143355;80;21005;-88
2022/10/20 11:23:33;;;;;;;5.15;3.87;;;;;;;9.24;100.00;99837.86;2139213;83;21036;-88
2022/10/20 11:26:33;;;;;;;6.22;4.25;;;;;;;9.17;100.00;99836.30;2169664;80;21579;-87
2022/10/20 11:29:34;;;;;;;6.37;4.60;;;;;;;9.17;100.00;99832.86;2192569;80;20955;-89
2022/10/20 11:32:35;;;;;;;4.67;3.75;;;;;;;9.23;100.00;99825.73;2184044;80;21102;-87
2022/10/20 11:35:38;;;;;;;7.85;4.95;;;;;;;9.28;100.00;99827.45;2174409;82;20937;-88
2022/10/20 11:38:38;;;;;;;6.83;4.28;;;;;;;9.26;100.00;99822.38;2195752;80;21626;-86
2022/10/20 11:41:39;;;;;;;5.28;3.67;;;;;;;9.33;100.00;99812.17;2194161;80;20972;-85
2022/10/20 11:44:40;;;;;;;5.12;3.17;;;;;;;9.42;100.00;99811.30;2194834;80;21435;-86
2022/10/20 11:47:40;;;;;;;6.78;4.17;;;;;;;9.43;100.00;99806.41;2204413;80;22136;-87
2022/10/20 11:50:41;;;;;;;4.85;3.15;;;;;;;9.33;100.00;99806.95;2217005;80;20993;-87
2022/10/20 11:53:42;;;;;;;4.10;3.33;;;;;;;9.28;100.00;99799.52;2214113;80;20994;-87
2022/10/20 11:56:43;;;;;;;4.58;2.90;;;;;;;9.32;100.00;99794.81;2155607;80;21012;-86
2022/10/20 11:59:43;;;;;;;3.72;2.17;;;;;;;9.37;100.00;99795.22;2206521;80;21540;-87
2022/10/20 12:02:47;;;;;;;3.80;2.67;;;;;;;9.46;100.00;99785.20;2202578;81;20950;-88
2022/10/20 12:05:47;;;;;;;2.83;2.50;;;;;;;9.64;100.00;99776.08;2201747;81;22118;-87
2022/10/20 12:08:47;;;;;;;3.47;2.40;;;;;;;9.94;100.00;99771.78;2203880;80;20959;-87
2022/10/20 12:11:48;;;;;;;3.12;2.27;;;;;;;10.19;100.00;99766.77;2216380;80;20974;-87
2022/10/20 12:14:49;;;;;;;3.30;2.52;;;;;;;10.41;100.00;99772.03;2216748;80;21001;-87
2022/10/20 12:17:50;;;;;;;6.53;2.22;;;;;;;10.59;100.00;99765.45;2176023;80;20982;-87
2022/10/20 12:20:51;;;;;;;2.90;2.27;;;;;;;10.70;100.00;99766.03;2166602;82;21001;-87
2022/10/20 12:23:53;;;;;;;2.70;2.30;;;;;;;10.66;100.00;99760.75;2199103;80;21041;-88
2022/10/20 12:26:54;;;;;;;4.97;3.62;;;;;;;10.65;100.00;99758.30;2205225;79;21117;-86
2022/10/20 12:29:54;;;;;;;2.17;1.98;;;;;;;10.72;100.00;99761.45;2216860;78;22112;-86
2022/10/20 12:32:56;;;;;;;4.30;2.02;;;;;;;10.74;100.00;99755.56;2235689;78;20996;-86
2022/10/20 12:35:57;;;;;;;3.05;1.98;;;;;;;10.71;100.00;99751.95;2251458;78;21002;-86
2022/10/20 12:38:57;;;;;;;4.37;1.90;;;;;;;10.72;100.00;99752.78;2212511;78;21489;-86
2022/10/20 12:41:58;;;;;;;3.90;2.40;;;;;;;10.71;100.00;99749.34;2187913;81;20973;-86
2022/10/20 12:44:59;;;;;;;3.42;2.40;;;;;;;10.62;100.00;99745.03;2201652;78;20976;-87
2022/10/20 12:48:00;;;;;;;5.20;4.03;;;;;;;10.63;100.00;99741.92;2173958;82;21001;-87
2022/10/20 12:51:00;;;;;;;5.75;3.08;;;;;;;10.64;100.00;99741.76;2202186;80;20982;-86
2022/10/20 12:54:01;;;;;;;4.33;2.15;;;;;;;10.68;100.00;99739.64;2170825;80;21629;-86
2022/10/20 12:57:02;;;;;;;2.83;1.92;;;;;;;10.66;100.00;99738.48;2238870;78;21072;-86
2022/10/20 13:00:03;;;;;;;2.20;2.00;;;;;;;10.67;100.00;99734.07;2199967;80;20990;-86
2022/10/20 13:03:04;;;;;;;1.98;1.60;;;;;;;10.70;100.00;99736.40;2215716;80;21520;-87
2022/10/20 13:06:04;;;;;;;2.90;1.72;;;;;;;10.78;100.00;99726.76;2216425;80;20994;-87
2022/10/20 13:09:05;;;;;;;2.20;1.70;;;;;;;10.74;100.00;99731.17;2215795;80;21526;-85
2022/10/20 13:12:07;;;;;;;2.25;1.77;;;;;;;10.46;100.00;99737.88;2213904;80;21533;-88
2022/10/20 13:15:08;;;;;;;1.82;1.72;;;;;;;10.44;100.00;99734.60;2181638;82;20981;-88
2022/10/20 13:18:09;;;;;;;2.20;1.92;;;;;;;10.39;100.00;99728.17;2172500;80;20993;-89
2022/10/20 13:21:10;;;;;;;1.62;1.52;;;;;;;10.25;100.00;99719.91;2178383;82;21024;-88
2022/10/20 13:24:12;;;;;;;2.92;1.40;;;;;;;10.25;100.00;99717.30;2179503;82;20978;-86
2022/10/20 13:27:12;;;;;;;1.60;1.50;;;;;;;10.12;100.00;99718.13;2180597;80;20966;-88
2022/10/20 13:30:13;;;;;;;1.22;1.22;;;;;;;10.03;100.00;99712.50;2148382;82;21069;-88
2022/10/20 13:33:14;;;;;;;1.92;1.32;;;;;;;10.01;100.00;99714.94;2148578;82;20955;-88
2022/10/20 13:36:15;;;;;;;2.12;1.20;;;;;;;9.96;100.00;99712.77;2151810;80;21056;-86
2022/10/20 13:39:15;;;;;;;2.22;1.47;;;;;;;10.03;100.00;99712.98;2206090;80;21134;-85
2022/10/20 13:42:16;;;;;;;4.90;1.60;;;;;;;10.01;100.00;99718.37;2159531;82;21015;-84
2022/10/20 13:45:17;;;;;;;1.50;1.40;;;;;;;9.90;100.00;99715.52;2159341;82;21035;-87
2022/10/20 13:48:18;;;;;;;2.25;1.30;;;;;;;9.94;100.00;99718.16;2183264;80;20982;-85
2022/10/20 13:51:18;;;;;;;1.42;1.35;;;;;;;9.95;100.00;99708.02;2210304;80;20978;-87
2022/10/20 13:54:19;;;;;;;2.87;1.45;;;;;;;9.96;100.00;99704.91;2206477;80;21020;-87
2022/10/20 13:57:20;;;;;;;1.30;1.20;;;;;;;9.85;100.00;99698.13;2208444;80;21011;-89